Time;durP1;ratioP1;P1;durP2;ratioP2;P2;SDS_P1;SDS_P2;PMS_P1;PMS_P2;Temp;Humidity;BMP_temperature;BMP_pressure;BME280_temperature;BME280_humidity;BME280_pressure;Samples;Min_cycle;Max_cycle;Signal;HPM_P1;HPM_P2
2022/07/24 00:02:12;;;;;;;4.82;3.95;;;;;;;15.58;100.00;101897.34;5023353;28;20038;-86
2022/07/24 00:04:38;;;;;;;4.38;3.70;;;;;;;15.57;100.00;101901.78;5022652;28;21480;-85
2022/07/24 00:07:03;;;;;;;4.15;3.75;;;;;;;15.55;100.00;101902.81;5023454;28;20032;-85
2022/07/24 00:09:29;;;;;;;4.90;4.20;;;;;;;15.50;100.00;101894.16;5023007;28;20645;-86
2022/07/24 00:11:54;;;;;;;4.93;4.07;;;;;;;15.47;100.00;101893.38;5022773;28;20049;-85
2022/07/24 00:14:20;;;;;;;5.78;4.07;;;;;;;15.46;100.00;101896.13;5022363;28;20049;-85
2022/07/24 00:16:45;;;;;;;5.32;3.95;;;;;;;15.42;100.00;101884.72;5005339;28;20092;-85
2022/07/24 00:19:11;;;;;;;5.30;4.35;;;;;;;15.40;100.00;101875.06;5026756;28;20037;-87
2022/07/24 00:21:36;;;;;;;6.60;4.00;;;;;;;15.38;100.00;101883.19;5026252;28;20057;-86
2022/07/24 00:24:02;;;;;;;4.93;4.20;;;;;;;15.37;100.00;101880.56;5026461;28;20547;-85
2022/07/24 00:26:28;;;;;;;5.65;4.25;;;;;;;15.36;100.00;101882.38;5026952;28;20465;-84
2022/07/24 00:28:53;;;;;;;4.60;3.92;;;;;;;15.34;100.00;101876.25;5026733;28;20040;-86
2022/07/24 00:31:19;;;;;;;5.28;4.13;;;;;;;15.34;100.00;101881.59;5008817;28;20039;-85
2022/07/24 00:33:45;;;;;;;5.18;4.20;;;;;;;15.34;100.00;101884.25;5026038;28;20478;-85
2022/07/24 00:36:11;;;;;;;5.13;4.20;;;;;;;15.32;100.00;101884.31;5026698;28;20043;-86
2022/07/24 00:38:36;;;;;;;5.10;4.15;;;;;;;15.32;100.00;101878.13;5026463;28;20162;-86
2022/07/24 00:41:02;;;;;;;4.97;4.13;;;;;;;15.30;100.00;101875.53;5026638;28;20064;-86
2022/07/24 00:43:27;;;;;;;5.32;4.10;;;;;;;15.29;100.00;101873.81;5026266;28;20033;-86
2022/07/24 00:45:53;;;;;;;5.32;4.28;;;;;;;15.30;100.00;101885.34;5026275;28;21576;-85
2022/07/24 00:48:19;;;;;;;6.40;4.60;;;;;;;15.29;100.00;101873.81;5025614;28;20037;-86
2022/07/24 00:50:47;;;;;;;6.78;4.70;;;;;;;15.30;100.00;101880.00;5025204;28;20035;-86
2022/07/24 00:53:14;;;;;;;4.90;4.18;;;;;;;15.28;100.00;101874.75;5008364;28;20068;-86
2022/07/24 00:55:39;;;;;;;5.38;4.40;;;;;;;15.27;100.00;101874.81;5025270;28;20060;-88
2022/07/24 00:58:05;;;;;;;8.52;4.35;;;;;;;15.25;100.00;101861.56;5026248;28;20412;-87
2022/07/24 01:00:30;;;;;;;5.00;4.45;;;;;;;15.22;100.00;101867.06;5026721;28;20049;-86
2022/07/24 01:02:56;;;;;;;5.15;4.47;;;;;;;15.19;100.00;101862.72;5026163;28;20025;-85
2022/07/24 01:05:21;;;;;;;6.05;4.38;;;;;;;15.15;100.00;101860.28;5025170;28;20387;-86
2022/07/24 01:07:47;;;;;;;8.23;4.80;;;;;;;15.13;100.00;101865.69;5025994;28;20039;-87
2022/07/24 01:10:14;;;;;;;5.43;4.53;;;;;;;15.09;100.00;101863.25;5027012;28;20690;-85
2022/07/24 01:12:40;;;;;;;5.03;4.53;;;;;;;15.06;100.00;101862.47;5026952;28;20033;-87
2022/07/24 01:15:08;;;;;;;5.57;4.63;;;;;;;15.05;100.00;101854.53;5008148;28;20132;-87
2022/07/24 01:17:35;;;;;;;6.38;4.82;;;;;;;15.03;100.00;101854.59;5026294;28;20038;-86
2022/07/24 01:20:01;;;;;;;6.57;4.78;;;;;;;15.02;100.00;101863.56;5025404;28;20041;-84
2022/07/24 01:22:27;;;;;;;5.47;4.28;;;;;;;14.99;100.00;101846.84;5008385;28;20103;-84
2022/07/24 01:24:53;;;;;;;9.43;4.93;;;;;;;14.96;100.00;101845.19;5008568;28;20039;-84
2022/07/24 01:27:20;;;;;;;6.82;4.93;;;;;;;14.94;100.00;101841.72;5026426;28;20033;-85
2022/07/24 01:29:46;;;;;;;5.95;4.78;;;;;;;14.92;100.00;101840.91;4992816;28;20037;-84
2022/07/24 01:32:11;;;;;;;7.35;5.22;;;;;;;14.91;100.00;101839.19;5025508;28;20041;-86
2022/07/24 01:34:37;;;;;;;6.85;5.05;;;;;;;14.90;100.00;101840.13;4994511;28;20076;-84
2022/07/24 01:37:02;;;;;;;6.93;5.05;;;;;;;14.89;100.00;101836.63;5025626;28;20029;-84
2022/07/24 01:39:28;;;;;;;6.28;5.00;;;;;;;14.87;100.00;101830.47;5026159;28;20025;-86
2022/07/24 01:41:53;;;;;;;7.30;5.43;;;;;;;14.86;100.00;101834.09;5026018;28;20094;-87
2022/07/24 01:44:19;;;;;;;8.07;5.45;;;;;;;14.85;100.00;101836.81;5026609;28;20037;-86
2022/07/24 01:46:47;;;;;;;6.25;4.53;;;;;;;14.84;100.00;101835.97;5025830;28;20443;-85
2022/07/24 01:49:13;;;;;;;7.40;5.70;;;;;;;14.84;100.00;101841.31;5025385;28;20036;-85
2022/07/24 01:51:38;;;;;;;7.55;5.47;;;;;;;14.85;100.00;101836.81;5025135;28;20025;-87
2022/07/24 01:54:04;;;;;;;6.60;5.43;;;;;;;14.84;100.00;101835.09;5025349;28;20029;-87
2022/07/24 01:56:30;;;;;;;5.90;5.30;;;;;;;14.84;100.00;101846.63;5024268;28;20472;-85
2022/07/24 01:58:56;;;;;;;7.53;5.07;;;;;;;14.83;100.00;101839.59;5024522;28;20523;-85
2022/07/24 02:01:22;;;;;;;6.65;5.13;;;;;;;14.81;100.00;101841.44;5023830;28;20046;-85
2022/07/24 02:03:48;;;;;;;5.75;5.05;;;;;;;14.82;100.00;101845.81;5006401;28;20167;-85
2022/07/24 02:06:14;;;;;;;6.25;4.70;;;;;;;14.82;100.00;101844.97;5024078;28;20060;-86
2022/07/24 02:08:39;;;;;;;6.78;4.85;;;;;;;14.80;100.00;101843.25;4992275;28;20126;-86
2022/07/24 02:11:05;;;;;;;7.43;5.13;;;;;;;14.81;100.00;101841.44;5024553;28;20033;-82
2022/07/24 02:13:30;;;;;;;8.02;5.03;;;;;;;14.80;100.00;101843.25;5023864;28;20036;-87
2022/07/24 02:15:56;;;;;;;6.40;5.20;;;;;;;14.82;100.00;101836.97;5023879;28;20041;-85
2022/07/24 02:18:22;;;;;;;6.82;5.50;;;;;;;14.83;100.00;101828.03;5024681;28;20150;-85
2022/07/24 02:20:47;;;;;;;7.70;5.28;;;;;;;14.84;100.00;101825.31;5006608;28;20095;-86
2022/07/24 02:23:17;;;;;;;7.07;5.22;;;;;;;14.86;100.00;101822.59;5006201;28;20037;-84
2022/07/24 02:25:45;;;;;;;8.43;5.15;;;;;;;14.85;100.00;101821.69;5024203;28;20021;-88
2022/07/24 02:28:11;;;;;;;8.43;5.88;;;;;;;14.87;100.00;101818.97;5025587;28;20029;-85
2022/07/24 02:30:36;;;;;;;9.35;5.72;;;;;;;14.86;100.00;101819.91;5024692;28;20028;-87
2022/07/24 02:33:02;;;;;;;7.72;5.68;;;;;;;14.85;100.00;101815.50;5025558;28;20048;-85
2022/07/24 02:35:27;;;;;;;8.15;5.57;;;;;;;14.84;100.00;101819.09;5023870;28;20037;-85
2022/07/24 02:37:53;;;;;;;7.80;5.35;;;;;;;14.85;100.00;101812.81;5023389;28;20036;-86
2022/07/24 02:40:18;;;;;;;9.95;6.07;;;;;;;14.86;100.00;101811.91;5023472;28;20040;-85
2022/07/24 02:42:44;;;;;;;8.50;5.93;;;;;;;14.87;100.00;101802.97;5023816;28;20020;-85
2022/07/24 02:45:10;;;;;;;8.63;5.45;;;;;;;14.88;100.00;101802.03;5007842;28;20049;-87
2022/07/24 02:47:46;;;;;;;8.65;5.72;;;;;;;14.88;100.00;101799.38;5022949;28;20175;-85
2022/07/24 02:50:12;;;;;;;8.60;5.70;;;;;;;14.87;100.00;101797.66;5005746;28;20120;-86
2022/07/24 02:52:37;;;;;;;7.90;5.63;;;;;;;14.86;100.00;101798.59;5022659;28;20098;-87
2022/07/24 02:55:06;;;;;;;8.50;5.70;;;;;;;14.87;100.00;101803.81;5022994;28;20068;-85
2022/07/24 02:57:31;;;;;;;7.85;5.82;;;;;;;14.86;100.00;101801.25;5023217;28;20053;-86
2022/07/24 02:59:57;;;;;;;8.52;5.85;;;;;;;14.86;100.00;101802.09;5021517;28;20134;-85
2022/07/24 03:02:22;;;;;;;8.55;5.72;;;;;;;14.89;100.00;101806.41;5023937;28;20056;-86
2022/07/24 03:04:48;;;;;;;7.95;5.90;;;;;;;14.90;100.00;101797.47;5024046;28;20025;-83
2022/07/24 03:07:13;;;;;;;7.97;6.00;;;;;;;14.91;100.00;101796.53;5023231;28;20082;-83
2022/07/24 03:09:39;;;;;;;7.90;5.78;;;;;;;14.93;100.00;101789.34;5004556;28;20495;-84
2022/07/24 03:12:05;;;;;;;8.45;5.57;;;;;;;14.96;100.00;101801.63;5022363;28;20052;-84
2022/07/24 03:14:30;;;;;;;9.82;5.80;;;;;;;14.96;100.00;101796.31;5022597;28;20033;-85
2022/07/24 03:16:56;;;;;;;9.80;5.97;;;;;;;14.97;100.00;101792.72;4990492;28;20068;-85
2022/07/24 03:19:22;;;;;;;9.35;6.50;;;;;;;14.98;100.00;101787.31;5022331;28;20086;-85
2022/07/24 03:21:47;;;;;;;8.15;5.90;;;;;;;15.00;100.00;101777.44;5023514;28;20122;-85
2022/07/24 03:24:13;;;;;;;8.70;6.07;;;;;;;14.99;100.00;101778.34;5022765;28;20033;-85
2022/07/24 03:26:38;;;;;;;8.63;6.15;;;;;;;15.00;100.00;101785.44;5022296;28;20033;-85
2022/07/24 03:29:04;;;;;;;8.52;6.13;;;;;;;15.01;100.00;101778.28;5004813;28;20502;-87
2022/07/24 03:31:29;;;;;;;7.32;5.13;;;;;;;14.99;100.00;101774.84;5022540;28;20037;-83
2022/07/24 03:33:55;;;;;;;7.78;5.82;;;;;;;14.98;100.00;101771.31;5023141;28;20052;-84
2022/07/24 03:36:21;;;;;;;10.75;6.38;;;;;;;14.98;100.00;101765.97;5022738;28;20867;-84
2022/07/24 03:38:46;;;;;;;8.50;6.10;;;;;;;14.98;100.00;101768.63;5023061;28;20036;-85
2022/07/24 03:41:12;;;;;;;9.55;6.05;;;;;;;14.99;100.00;101762.34;5023108;28;20037;-86
2022/07/24 03:43:37;;;;;;;8.00;6.00;;;;;;;15.00;100.00;101760.56;5022682;28;20033;-85
2022/07/24 03:46:03;;;;;;;8.10;5.55;;;;;;;15.01;100.00;101760.50;5023941;28;20511;-86
2022/07/24 03:48:29;;;;;;;7.97;6.00;;;;;;;15.02;100.00;101762.22;5007292;28;20027;-85
2022/07/24 03:50:54;;;;;;;8.95;5.82;;;;;;;15.02;100.00;101759.56;5022601;28;20020;-85
2022/07/24 03:53:20;;;;;;;8.70;5.78;;;;;;;15.02;100.00;101754.22;5025798;28;20047;-85
2022/07/24 03:55:45;;;;;;;9.55;6.05;;;;;;;15.02;100.00;101759.56;5026846;28;20026;-86
2022/07/24 03:58:11;;;;;;;7.05;5.85;;;;;;;15.01;100.00;101760.50;5026399;28;20106;-85
2022/07/24 04:00:39;;;;;;;8.30;5.85;;;;;;;15.01;100.00;101763.16;5027014;28;20037;-85
2022/07/24 04:03:05;;;;;;;8.63;6.28;;;;;;;15.00;100.00;101758.78;5027113;28;20095;-85
2022/07/24 04:05:30;;;;;;;7.75;6.13;;;;;;;15.01;100.00;101762.28;5027462;28;20800;-84
2022/07/24 04:07:56;;;;;;;9.38;6.28;;;;;;;15.00;100.00;101763.22;5026808;28;20630;-85
2022/07/24 04:10:21;;;;;;;9.98;5.88;;;;;;;14.99;100.00;101759.69;5027382;28;20072;-86
2022/07/24 04:12:47;;;;;;;8.05;6.13;;;;;;;14.96;100.00;101759.84;4995426;28;20037;-84
2022/07/24 04:15:12;;;;;;;7.85;6.10;;;;;;;14.92;100.00;101755.59;5027036;28;20034;-84
2022/07/24 04:17:43;;;;;;;11.00;6.75;;;;;;;14.87;100.00;101753.16;5026366;28;21356;-82
2022/07/24 04:20:09;;;;;;;7.15;5.50;;;;;;;14.85;100.00;101751.50;5009256;28;20479;-84
2022/07/24 04:22:35;;;;;;;7.97;6.32;;;;;;;14.83;100.00;101740.94;5008741;28;20745;-85
2022/07/24 04:25:01;;;;;;;8.32;6.30;;;;;;;14.81;100.00;101734.81;5026605;28;20033;-85
2022/07/24 04:27:26;;;;;;;8.55;6.50;;;;;;;14.81;100.00;101740.16;5026345;28;20037;-84
2022/07/24 04:29:52;;;;;;;8.77;6.45;;;;;;;14.80;100.00;101738.41;5026944;28;20067;-85
2022/07/24 04:32:17;;;;;;;7.55;5.80;;;;;;;14.80;100.00;101733.97;5026924;28;20044;-85
2022/07/24 04:34:43;;;;;;;10.05;6.35;;;;;;;14.82;100.00;101730.34;5026847;28;20120;-84
2022/07/24 04:37:08;;;;;;;9.15;6.57;;;;;;;14.83;100.00;101740.06;5026809;28;20090;-83
2022/07/24 04:39:34;;;;;;;10.85;7.03;;;;;;;14.85;100.00;101735.53;5008117;28;20072;-85
2022/07/24 04:41:59;;;;;;;9.27;6.68;;;;;;;14.85;100.00;101738.19;5026140;28;20030;-84
2022/07/24 04:44:25;;;;;;;10.40;7.35;;;;;;;14.88;100.00;101735.38;5026571;28;20040;-84
2022/07/24 04:46:50;;;;;;;10.13;6.93;;;;;;;14.90;100.00;101733.50;5024508;28;20507;-84
2022/07/24 04:49:16;;;;;;;9.40;7.15;;;;;;;14.94;100.00;101732.41;5025916;28;20029;-83
2022/07/24 04:51:41;;;;;;;12.75;7.40;;;;;;;14.96;100.00;101741.19;5008332;28;20483;-84
2022/07/24 04:54:07;;;;;;;9.88;6.78;;;;;;;14.99;100.00;101741.03;5025321;28;20456;-84
2022/07/24 04:56:32;;;;;;;14.18;6.93;;;;;;;15.02;100.00;101738.22;5026028;28;20026;-84
2022/07/24 04:59:01;;;;;;;9.32;6.70;;;;;;;15.07;100.00;101744.19;5025783;28;20664;-85
2022/07/24 05:01:27;;;;;;;11.45;7.35;;;;;;;15.14;100.00;101738.56;5025808;28;20522;-85
2022/07/24 05:03:53;;;;;;;11.05;7.32;;;;;;;15.19;100.00;101736.50;4992270;28;20029;-85
2022/07/24 05:06:18;;;;;;;10.30;7.57;;;;;;;15.25;100.00;101748.69;4993055;28;20033;-85
2022/07/24 05:08:44;;;;;;;10.90;7.30;;;;;;;15.30;100.00;101739.47;5025905;28;20030;-86
2022/07/24 05:11:09;;;;;;;8.77;6.22;;;;;;;15.35;100.00;101739.25;5024883;28;20500;-85
2022/07/24 05:13:35;;;;;;;9.55;6.68;;;;;;;15.42;100.00;101726.47;4993396;28;20360;-85
2022/07/24 05:16:00;;;;;;;10.20;7.15;;;;;;;15.49;100.00;101722.53;5025202;28;20044;-85
2022/07/24 05:18:26;;;;;;;9.13;6.43;;;;;;;15.57;100.00;101731.00;4990297;28;20044;-85
2022/07/24 05:20:51;;;;;;;10.43;6.60;;;;;;;15.65;100.00;101724.38;5025565;28;20176;-84
2022/07/24 05:23:17;;;;;;;11.25;7.13;;;;;;;15.74;100.00;101721.22;5024651;28;20076;-86
2022/07/24 05:25:42;;;;;;;9.05;6.82;;;;;;;15.83;100.00;101718.06;5006309;28;20128;-86
2022/07/24 05:28:08;;;;;;;9.63;7.35;;;;;;;15.93;100.00;101720.25;5025143;28;20033;-86
2022/07/24 05:30:33;;;;;;;10.43;7.07;;;;;;;16.03;100.00;101721.50;4993528;28;20535;-86
2022/07/24 05:32:59;;;;;;;9.90;6.88;;;;;;;16.11;100.00;101711.25;5023255;28;20081;-86
2022/07/24 05:35:24;;;;;;;9.02;6.78;;;;;;;16.23;100.00;101712.38;5025075;28;20060;-87
2022/07/24 05:37:50;;;;;;;10.20;7.18;;;;;;;16.34;100.00;101716.25;5024588;28;20030;-86
2022/07/24 05:40:15;;;;;;;13.15;7.72;;;;;;;16.43;100.00;101705.91;5024817;28;20617;-85
2022/07/24 05:42:41;;;;;;;10.95;8.25;;;;;;;16.56;100.00;101708.75;5024523;28;20037;-87
2022/07/24 05:45:07;;;;;;;9.95;7.28;;;;;;;16.67;100.00;101705.44;5024386;28;20400;-85
2022/07/24 05:47:39;;;;;;;11.35;7.38;;;;;;;16.82;100.00;101713.53;5025378;28;20041;-84
2022/07/24 05:50:12;;;;;;;12.80;7.50;;;;;;;16.95;100.00;101711.84;5025121;28;20105;-84
2022/07/24 05:52:38;;;;;;;11.82;7.60;;;;;;;17.11;100.00;101711.00;5024671;28;20095;-85
2022/07/24 05:55:04;;;;;;;9.98;7.13;;;;;;;17.25;100.00;101702.13;5024016;28;20037;-85
2022/07/24 05:57:30;;;;;;;11.63;7.55;;;;;;;17.38;100.00;101708.47;5024571;28;20040;-85
2022/07/24 05:59:55;;;;;;;11.50;7.75;;;;;;;17.48;100.00;101706.09;5024896;28;20036;-84
2022/07/24 06:02:21;;;;;;;11.52;7.88;;;;;;;17.57;100.00;101701.13;5008906;28;20036;-85
2022/07/24 06:04:47;;;;;;;10.93;8.27;;;;;;;17.64;100.00;101697.97;5024656;28;20028;-85
2022/07/24 06:07:12;;;;;;;10.57;7.90;;;;;;;17.80;100.00;101705.03;5024055;28;20070;-84
2022/07/24 06:09:39;;;;;;;11.75;7.65;;;;;;;18.01;100.00;101715.38;5024220;28;20034;-85
2022/07/24 06:12:05;;;;;;;11.50;8.05;;;;;;;18.19;100.00;101716.91;5023837;28;21392;-85
2022/07/24 06:14:31;;;;;;;11.10;7.40;;;;;;;18.40;100.00;101726.31;5023634;28;20037;-85
2022/07/24 06:16:56;;;;;;;11.07;7.75;;;;;;;18.59;100.00;101720.66;5023613;28;20201;-84
2022/07/24 06:19:22;;;;;;;13.80;8.38;;;;;;;18.76;100.00;101726.69;5023648;28;20049;-85
2022/07/24 06:21:48;;;;;;;12.00;8.15;;;;;;;18.89;100.00;101716.03;5024207;28;20029;-85
2022/07/24 06:24:13;;;;;;;12.15;8.52;;;;;;;18.99;100.00;101719.78;5023889;28;20212;-85
2022/07/24 06:26:38;;;;;;;11.48;7.57;;;;;;;19.10;100.00;101719.97;4991887;28;20463;-85
2022/07/24 06:29:04;;;;;;;12.25;8.60;;;;;;;19.22;100.00;101715.59;5006205;28;20128;-85
2022/07/24 06:31:30;;;;;;;13.38;8.65;;;;;;;19.38;100.00;101709.16;5023152;28;20029;-85
2022/07/24 06:33:55;;;;;;;14.00;8.50;;;;;;;19.60;100.00;101715.72;5023788;28;20048;-85
2022/07/24 06:36:21;;;;;;;10.80;8.10;;;;;;;19.76;100.00;101720.84;5005352;28;20035;-85
2022/07/24 06:38:47;;;;;;;11.00;7.53;;;;;;;19.92;100.00;101710.75;5022972;28;20375;-85
2022/07/24 06:41:13;;;;;;;12.80;8.68;;;;;;;20.15;100.00;101710.94;5023728;28;20039;-85
2022/07/24 06:43:39;;;;;;;10.73;7.78;;;;;;;20.39;100.00;101702.06;5006009;28;20060;-85
2022/07/24 06:46:05;;;;;;;12.70;8.27;;;;;;;20.67;100.00;101699.13;5023400;28;20096;-84
2022/07/24 06:48:30;;;;;;;12.38;8.35;;;;;;;20.93;99.40;101699.88;5023395;28;20476;-85
2022/07/24 06:50:56;;;;;;;13.95;8.65;;;;;;;21.10;98.62;101698.59;5023358;28;20078;-85
2022/07/24 06:53:21;;;;;;;13.35;8.70;;;;;;;21.13;97.90;101703.72;5022988;28;20387;-84
2022/07/24 06:55:47;;;;;;;10.65;8.70;;;;;;;21.13;97.43;101692.94;5005049;28;20063;-86
2022/07/24 06:58:12;;;;;;;14.93;9.15;;;;;;;21.09;97.20;101698.69;5022761;28;20448;-85
2022/07/24 07:00:39;;;;;;;12.23;8.73;;;;;;;21.08;97.09;101705.91;5023164;28;20037;-84
2022/07/24 07:03:07;;;;;;;12.27;8.35;;;;;;;21.06;97.09;101704.31;5023155;28;20030;-83
2022/07/24 07:05:32;;;;;;;13.18;8.60;;;;;;;21.06;97.14;101698.91;5022741;28;21394;-84
2022/07/24 07:07:58;;;;;;;11.13;7.70;;;;;;;21.00;96.98;101700.25;5023796;28;20037;-83
2022/07/24 07:10:27;;;;;;;12.63;8.70;;;;;;;20.95;97.24;101697.94;5007185;28;20766;-85
2022/07/24 07:12:52;;;;;;;11.68;8.35;;;;;;;20.98;97.46;101694.97;5005064;28;20508;-84
2022/07/24 07:15:18;;;;;;;11.60;8.30;;;;;;;20.97;97.46;101706.72;4988794;28;20504;-83
2022/07/24 07:17:47;;;;;;;14.30;8.45;;;;;;;20.98;97.84;101704.91;5004513;28;20128;-84
2022/07/24 07:20:13;;;;;;;10.65;7.93;;;;;;;20.96;98.02;101710.41;5023277;28;20104;-82
2022/07/24 07:22:40;;;;;;;12.30;8.30;;;;;;;20.99;97.87;101714.69;5022680;28;20087;-83
2022/07/24 07:25:06;;;;;;;11.95;8.10;;;;;;;21.01;98.24;101708.22;5022705;28;20038;-83
2022/07/24 07:27:32;;;;;;;11.32;7.43;;;;;;;21.02;98.03;101709.94;5021638;28;20041;-85
2022/07/24 07:29:58;;;;;;;9.02;7.25;;;;;;;20.99;97.88;101710.19;5023376;28;20048;-84
2022/07/24 07:32:23;;;;;;;8.55;5.88;;;;;;;20.99;97.71;101703.94;5022625;28;20045;-85
2022/07/24 07:34:50;;;;;;;8.85;4.97;;;;;;;21.01;97.13;101707.34;5022886;28;20032;-84
2022/07/24 07:37:15;;;;;;;6.20;4.97;;;;;;;21.04;97.21;101707.13;5003095;28;20029;-85
2022/07/24 07:39:41;;;;;;;6.72;4.63;;;;;;;21.06;96.97;101710.56;4990192;28;20037;-84
2022/07/24 07:42:06;;;;;;;8.38;5.47;;;;;;;21.11;96.87;101707.50;5022876;28;20735;-84
2022/07/24 07:44:32;;;;;;;7.00;5.22;;;;;;;21.16;97.11;101713.41;5023265;28;20047;-85
2022/07/24 07:46:58;;;;;;;7.63;5.53;;;;;;;21.22;97.31;101710.25;5022983;28;20034;-85
2022/07/24 07:49:23;;;;;;;9.05;5.95;;;;;;;21.37;97.51;101707.31;5023162;28;20030;-86
2022/07/24 07:51:51;;;;;;;7.18;5.72;;;;;;;21.51;96.97;101707.09;5022749;28;20129;-85
2022/07/24 07:54:17;;;;;;;8.65;6.13;;;;;;;21.59;96.24;101709.19;5003572;28;20576;-84
2022/07/24 07:56:42;;;;;;;9.05;5.78;;;;;;;21.65;95.81;101703.31;5022594;28;20202;-85
2022/07/24 07:59:08;;;;;;;7.20;5.97;;;;;;;21.69;95.13;101712.06;5022185;28;20495;-84
2022/07/24 08:01:34;;;;;;;7.82;5.93;;;;;;;21.70;94.60;101702.97;5022751;28;20411;-85
2022/07/24 08:04:00;;;;;;;8.32;5.75;;;;;;;21.72;94.65;101705.56;5023022;28;20460;-85
2022/07/24 08:06:25;;;;;;;6.95;5.32;;;;;;;21.89;94.87;101701.50;5022600;28;20067;-83
2022/07/24 08:08:51;;;;;;;8.45;6.32;;;;;;;22.11;94.31;101692.53;5022313;28;20112;-85
2022/07/24 08:11:17;;;;;;;6.72;5.65;;;;;;;22.35;93.84;101703.13;4989733;28;20058;-86
2022/07/24 08:13:42;;;;;;;6.82;5.30;;;;;;;22.60;93.02;101706.53;5022442;28;20391;-84
2022/07/24 08:16:08;;;;;;;6.85;4.97;;;;;;;22.79;91.58;101702.28;5022175;28;20037;-83
2022/07/24 08:18:33;;;;;;;5.68;4.63;;;;;;;22.85;89.21;101704.47;5023274;28;20076;-82
2022/07/24 08:20:59;;;;;;;5.50;4.30;;;;;;;22.92;87.54;101694.88;5004542;28;20503;-88
2022/07/24 08:23:24;;;;;;;4.63;3.63;;;;;;;22.96;87.03;101695.47;5022108;28;20045;-82
2022/07/24 08:25:50;;;;;;;6.70;4.13;;;;;;;22.86;86.67;101699.91;5004169;28;20036;-85
2022/07/24 08:28:16;;;;;;;5.22;3.42;;;;;;;22.71;87.75;101699.38;5022155;28;20672;-85
2022/07/24 08:30:41;;;;;;;4.95;3.50;;;;;;;22.77;87.50;101693.47;5021859;28;20038;-88
2022/07/24 08:33:08;;;;;;;3.42;2.92;;;;;;;22.92;87.28;101692.16;5021958;28;20084;-85
2022/07/24 08:35:34;;;;;;;2.97;2.67;;;;;;;23.12;86.17;101691.44;5022100;28;20123;-86
2022/07/24 08:38:00;;;;;;;3.45;2.63;;;;;;;23.19;83.27;101701.59;5022623;28;20310;-82
2022/07/24 08:40:36;;;;;;;5.25;2.33;;;;;;;23.18;79.18;101701.72;5026331;28;21148;-83
2022/07/24 08:43:07;;;;;;;4.38;2.70;;;;;;;23.27;82.69;101708.19;5025660;28;20034;-86
2022/07/24 08:45:38;;;;;;;3.50;2.13;;;;;;;23.44;82.66;101702.19;5023690;28;21752;-83
2022/07/24 08:48:05;;;;;;;3.43;2.50;;;;;;;23.71;83.95;101700.75;5025095;28;20087;-83
2022/07/24 08:50:32;;;;;;;4.07;2.35;;;;;;;23.84;82.36;101694.25;5025542;28;20058;-87
2022/07/24 08:52:57;;;;;;;2.70;2.40;;;;;;;23.80;80.92;101704.47;4992862;28;20053;-86
2022/07/24 08:55:23;;;;;;;2.13;1.92;;;;;;;23.68;78.93;101698.31;5024523;28;20029;-86
2022/07/24 08:57:49;;;;;;;2.20;1.85;;;;;;;23.66;81.18;101697.63;5009201;28;20788;-83
2022/07/24 09:00:15;;;;;;;3.50;2.42;;;;;;;23.56;78.17;101700.28;5025668;28;20041;-86
2022/07/24 09:02:41;;;;;;;2.17;2.00;;;;;;;23.50;78.88;101713.44;5025004;28;20037;-85
2022/07/24 09:05:07;;;;;;;3.45;2.33;;;;;;;23.63;77.52;101700.56;5009756;28;20075;-79
2022/07/24 09:07:33;;;;;;;3.45;2.47;;;;;;;23.82;76.97;101709.75;5024918;28;20051;-82
2022/07/24 09:10:06;;;;;;;3.05;2.20;;;;;;;23.97;79.33;101694.84;5024927;28;20476;-83
2022/07/24 09:12:33;;;;;;;2.30;2.03;;;;;;;24.01;78.63;101696.31;5024960;28;20443;-85
2022/07/24 09:15:00;;;;;;;2.55;1.88;;;;;;;24.06;76.73;101695.03;5025188;28;20133;-85
2022/07/24 09:17:26;;;;;;;4.53;2.03;;;;;;;24.20;73.02;101699.22;4993516;28;20030;-80
2022/07/24 09:19:58;;;;;;;2.42;2.22;;;;;;;24.36;78.28;101690.56;5025281;28;20035;-85
2022/07/24 09:22:25;;;;;;;;;;;;;;;24.64;73.18;101688.03;5025536;28;20033;-85
2022/07/24 09:25:03;;;;;;;2.78;2.13;;;;;;;24.83;73.24;101705.31;5025181;28;20399;-84
2022/07/24 09:27:32;;;;;;;2.67;2.35;;;;;;;24.95;76.08;101693.31;5025028;28;20037;-84
2022/07/24 09:29:57;;;;;;;2.75;2.03;;;;;;;25.10;76.76;101696.41;5023496;28;20098;-82
2022/07/24 09:32:23;;;;;;;2.10;1.90;;;;;;;25.19;75.54;101700.13;4992644;28;20464;-86
2022/07/24 09:34:51;;;;;;;2.10;1.90;;;;;;;25.30;74.77;101702.66;5006518;28;20482;-84
2022/07/24 09:37:17;;;;;;;3.15;1.90;;;;;;;25.33;73.08;101706.94;5006222;28;20504;-85
2022/07/24 09:39:43;;;;;;;1.95;1.77;;;;;;;25.40;73.49;101707.19;5024480;28;20025;-80
2022/07/24 09:42:09;;;;;;;2.58;2.05;;;;;;;25.42;72.16;101702.47;5006619;28;20380;-84
2022/07/24 09:44:35;;;;;;;2.08;1.83;;;;;;;25.47;71.14;101698.34;4991558;28;20903;-85
2022/07/24 09:47:11;;;;;;;2.75;1.92;;;;;;;25.63;71.47;101711.28;5006280;28;20128;-82
2022/07/24 09:49:38;;;;;;;1.95;1.75;;;;;;;25.82;70.35;101695.94;5023758;28;21113;-81
2022/07/24 09:52:18;;;;;;;3.22;2.10;;;;;;;25.83;65.83;101697.66;5024939;28;20033;-84
2022/07/24 09:54:49;;;;;;;2.92;2.20;;;;;;;25.57;69.85;101692.91;5024532;28;20037;-81
2022/07/24 09:57:21;;;;;;;2.15;1.95;;;;;;;25.48;71.38;101682.91;5023967;28;20134;-80
2022/07/24 09:59:55;;;;;;;2.40;2.08;;;;;;;25.46;71.24;101679.50;5023400;28;20096;-81
2022/07/24 10:02:23;;;;;;;2.45;2.00;;;;;;;25.45;71.54;101686.75;5006437;28;20033;-83
2022/07/24 10:04:50;;;;;;;3.85;2.53;;;;;;;25.45;71.76;101677.81;5008800;28;20039;-87
2022/07/24 10:07:18;;;;;;;2.50;2.30;;;;;;;25.34;70.60;101682.38;5024415;28;20033;-86
2022/07/24 10:09:46;;;;;;;2.75;2.10;;;;;;;25.14;72.00;101684.31;5007053;28;20071;-83
2022/07/24 10:12:20;;;;;;;2.67;2.10;;;;;;;25.08;72.22;101677.63;4992747;28;20038;-86
2022/07/24 10:14:52;;;;;;;3.55;2.10;;;;;;;24.98;72.75;101681.31;4975881;28;20087;-85
2022/07/24 10:17:18;;;;;;;3.58;2.47;;;;;;;24.88;72.46;101689.50;5023873;28;20039;-85
2022/07/24 10:19:46;;;;;;;3.33;2.30;;;;;;;24.78;72.79;101690.28;5005272;28;20484;-86
2022/07/24 10:22:17;;;;;;;3.85;2.42;;;;;;;24.71;72.75;101685.63;5023811;28;20476;-85
2022/07/24 10:25:06;;;;;;;3.15;2.17;;;;;;;24.67;72.21;101687.72;5023389;28;20036;-85
2022/07/24 10:27:34;;;;;;;2.58;2.30;;;;;;;24.62;72.53;101684.63;5023416;28;20079;-86
2022/07/24 10:30:05;;;;;;;3.50;1.90;;;;;;;24.65;73.39;101681.59;5023639;28;20060;-84
2022/07/24 10:32:32;;;;;;;2.70;2.20;;;;;;;24.75;72.95;101687.88;5006158;28;20080;-85
2022/07/24 10:35:01;;;;;;;2.08;1.88;;;;;;;24.92;72.85;101682.75;5005498;28;20627;-85
2022/07/24 10:37:33;;;;;;;1.98;1.77;;;;;;;25.14;73.26;101676.19;5004831;28;20037;-86
2022/07/24 10:40:30;;;;;;;3.35;2.22;;;;;;;25.34;70.11;101679.69;5023233;28;20064;-85
2022/07/24 10:43:05;;;;;;;3.40;1.98;;;;;;;25.55;72.15;101681.34;4987332;28;20045;-86
2022/07/24 10:45:31;;;;;;;4.85;2.30;;;;;;;25.64;69.44;101679.59;5023306;28;20037;-87
2022/07/24 10:47:58;;;;;;;3.42;2.40;;;;;;;25.59;71.32;101680.06;5023431;28;20025;-86
2022/07/24 10:51:01;;;;;;;2.97;2.17;;;;;;;25.62;70.20;101684.34;5023214;28;20037;-88
2022/07/24 10:53:27;;;;;;;;;;;;;;;25.67;70.57;101675.75;5023382;28;20492;-85
2022/07/24 10:55:54;;;;;;;3.58;2.22;;;;;;;25.70;71.03;101684.44;5005085;28;19921;-83
2022/07/24 10:58:23;;;;;;;2.88;2.28;;;;;;;25.60;68.65;101684.47;5021900;28;20049;-84
2022/07/24 11:00:50;;;;;;;4.00;2.00;;;;;;;25.52;71.02;101676.22;5022117;28;20064;-85
2022/07/24 11:03:25;;;;;;;2.65;2.15;;;;;;;25.56;70.83;101677.66;5020457;28;20041;-82
2022/07/24 11:06:10;;;;;;;3.08;2.42;;;;;;;25.55;68.40;101677.81;5022965;28;20092;-86
2022/07/24 11:08:41;;;;;;;2.47;2.15;;;;;;;25.49;70.38;101684.66;4990801;28;20575;-83
2022/07/24 11:11:12;;;;;;;2.70;2.22;;;;;;;25.45;70.06;101667.78;5022243;28;20029;-84
2022/07/24 11:13:38;;;;;;;2.05;1.85;;;;;;;25.44;69.55;101676.09;5023114;28;20037;-87
2022/07/24 11:16:15;;;;;;;2.30;2.10;;;;;;;25.55;69.39;101673.22;5023236;28;20037;-85
2022/07/24 11:18:47;;;;;;;2.88;2.33;;;;;;;25.70;69.65;101673.59;5017618;28;20034;-85